DNMM/LOS METAR and TAF weather

Enter ICAO airport designator
Station Type Date Time Source
DNMM METAR 2018/04/21 11:00 UTC NOAA

DNMM 211100Z 18010KT 9999 BKN013 31/25 Q1013 NOSIG


Station Type Date Time Source
DNMM Decoded METAR 2018/04/21 11:00 UTC NOAA

Lagos / Ikeja, Nigeria (DNMM) 06-35N 003-20E 38M
Apr 21, 2018 - 07:00 AM EDT / 2018.04.21 1100 UTC
Wind: from the S (180 degrees) at 12 MPH (10 KT):0
Visibility: greater than 7 mile(s):0
Sky conditions: mostly cloudy
Temperature: 87 F (31 C)
Heat index: 97.5 F (36.4 C):1
Dew Point: 77 F (25 C)
Relative Humidity: 70%
Pressure (altimeter): 29.91 in. Hg (1013 hPa)
ob: DNMM 211100Z 18010KT 9999 BKN013 31/25 Q1013 NOSIG
cycle: 11

Station Type Date Time Source
DNMM TAF 2018/04/21 12:23 UTC NOAA

TAF DNMM 210950Z 2112/2218 20010KT 9999 BKN013 FEW020CB
TEMPO 2113/2118 TS BKN013 FEW020CB
BECMG 2118/2120 VRB02KT SCT010


Example: see airport list